Time;durP1;ratioP1;P1;durP2;ratioP2;P2;SDS_P1;SDS_P2;PMS_P1;PMS_P2;Temp;Humidity;BMP_temperature;BMP_pressure;BME280_temperature;BME280_humidity;BME280_pressure;Samples;Min_cycle;Max_cycle;Signal;HPM_P1;HPM_P2
2024/01/08 00:01:17;;;;;;;;;;;;;;;17.17;44.13;100799.75;10327498;28;851;-81
2024/01/08 00:06:13;;;;;;;;;;;;;;;17.19;44.24;100802.38;10327649;28;848;-81
2024/01/08 00:11:09;;;;;;;;;;;;;;;17.16;44.06;100808.56;10326338;28;806;-81
2024/01/08 00:16:05;;;;;;;;;;;;;;;17.14;44.31;100807.75;10326634;28;1890;-81
2024/01/08 00:21:02;;;;;;;;;;;;;;;17.13;44.15;100813.03;10327145;28;818;-81
2024/01/08 00:25:58;;;;;;;;;;;;;;;17.12;43.94;100812.16;10326515;28;858;-81
2024/01/08 00:30:54;;;;;;;;;;;;;;;17.11;44.08;100817.47;10326157;28;850;-81
2024/01/08 00:35:52;;;;;;;;;;;;;;;17.06;43.88;100809.69;10326501;28;1939;-82
2024/01/08 00:40:48;;;;;;;;;;;;;;;17.06;44.01;100812.31;10325649;28;1165;-81
2024/01/08 00:45:44;;;;;;;;;;;;;;;17.05;43.75;100821.97;10325861;28;771;-81
2024/01/08 00:50:40;;;;;;;;;;;;;;;17.01;43.90;100814.19;10326324;28;866;-81
2024/01/08 00:55:36;;;;;;;;;;;;;;;17.01;43.91;100812.41;10326754;28;1967;-82
2024/01/08 01:00:32;;;;;;;;;;;;;;;17.01;43.96;100808.94;10325922;28;841;-82
2024/01/08 01:05:27;;;;;;;;;;;;;;;16.96;43.92;100806.41;10325365;28;944;-81
2024/01/08 01:10:23;;;;;;;;;;;;;;;16.96;43.80;100805.53;10325865;28;865;-80
2024/01/08 01:15:19;;;;;;;;;;;;;;;16.98;43.71;100809.88;10325176;28;1957;-81
2024/01/08 01:20:15;;;;;;;;;;;;;;;16.96;43.76;100805.53;10325719;28;905;-81
2024/01/08 01:25:11;;;;;;;;;;;;;;;16.94;43.87;100815.22;10325754;28;865;-81
2024/01/08 01:30:07;;;;;;;;;;;;;;;16.96;43.77;100821.34;10324239;28;766;-81
2024/01/08 01:35:03;;;;;;;;;;;;;;;16.93;43.78;100818.78;10324553;28;1965;-81
2024/01/08 01:39:59;;;;;;;;;;;;;;;16.92;43.98;100822.28;10331117;28;1223;-82
2024/01/08 01:44:55;;;;;;;;;;;;;;;16.94;43.64;100821.34;10333228;28;866;-81
2024/01/08 01:49:50;;;;;;;;;;;;;;;16.93;43.69;100824.91;10332447;28;848;-81
2024/01/08 01:54:46;;;;;;;;;;;;;;;16.93;43.64;100818.78;10332753;28;1902;-81
2024/01/08 01:59:42;;;;;;;;;;;;;;;16.95;43.91;100820.47;10332080;28;777;-81
2024/01/08 02:04:38;;;;;;;;;;;;;;;16.94;43.88;100824.00;10331770;28;876;-81
2024/01/08 02:09:34;;;;;;;;;;;;;;;16.92;43.89;100820.53;10332233;28;819;-81
2024/01/08 02:14:30;;;;;;;;;;;;;;;16.96;43.68;100821.34;10332022;28;1949;-81
2024/01/08 02:19:26;;;;;;;;;;;;;;;16.93;43.72;100816.16;10331909;28;854;-81
2024/01/08 02:24:22;;;;;;;;;;;;;;;16.93;43.91;100818.78;10331753;28;968;-82
2024/01/08 02:29:19;;;;;;;;;;;;;;;16.93;43.65;100814.38;10330955;28;805;-82
2024/01/08 02:34:15;;;;;;;;;;;;;;;16.91;43.96;100817.94;10330769;28;1890;-81
2024/01/08 02:39:11;;;;;;;;;;;;;;;16.93;43.91;100813.50;10330912;28;1132;-81
2024/01/08 02:44:07;;;;;;;;;;;;;;;16.95;43.59;100807.31;10331050;28;893;-81
2024/01/08 02:49:02;;;;;;;;;;;;;;;16.90;43.80;100798.66;10329666;28;810;-81
2024/01/08 02:53:58;;;;;;;;;;;;;;;16.88;43.63;100805.72;10330035;28;1910;-81
2024/01/08 02:58:54;;;;;;;;;;;;;;;16.89;43.65;100814.47;10329339;28;779;-81
2024/01/08 03:03:50;;;;;;;;;;;;;;;16.85;43.65;100819.81;10329619;28;838;-81
2024/01/08 03:08:46;;;;;;;;;;;;;;;16.83;43.77;100828.63;10329645;28;931;-81
2024/01/08 03:13:42;;;;;;;;;;;;;;;16.85;43.80;100840.00;10329847;28;1875;-81
2024/01/08 03:18:38;;;;;;;;;;;;;;;16.82;43.59;100827.78;10329897;28;972;-81
2024/01/08 03:23:35;;;;;;;;;;;;;;;16.78;43.79;100831.38;10328388;28;834;-81
2024/01/08 03:28:30;;;;;;;;;;;;;;;16.77;43.60;100827.00;10328708;28;857;-82
2024/01/08 03:33:26;;;;;;;;;;;;;;;16.77;43.55;100819.13;10327743;28;1889;-81
2024/01/08 03:38:22;;;;;;;;;;;;;;;16.74;43.64;100820.91;10328287;28;1316;-81
2024/01/08 03:43:18;;;;;;;;;;;;;;;16.73;43.58;100825.31;10328674;28;850;-81
2024/01/08 03:48:14;;;;;;;;;;;;;;;16.73;43.55;100824.44;10327845;28;881;-81
2024/01/08 03:53:10;;;;;;;;;;;;;;;16.70;43.80;100822.75;10327813;28;1901;-81
2024/01/08 03:58:06;;;;;;;;;;;;;;;16.70;43.66;100825.38;10327438;28;798;-82
2024/01/08 04:03:02;;;;;;;;;;;;;;;16.71;43.40;100820.97;10326804;28;935;-81
2024/01/08 04:07:58;;;;;;;;;;;;;;;16.68;43.55;100821.91;10327084;28;1028;-81
2024/01/08 04:12:54;;;;;;;;;;;;;;;16.69;43.61;100828.03;10326851;28;1897;-81
2024/01/08 04:17:50;;;;;;;;;;;;;;;16.75;43.47;100823.50;10326757;28;766;-82
2024/01/08 04:22:46;;;;;;;;;;;;;;;16.78;43.45;100822.59;10326504;28;890;-82
2024/01/08 04:27:42;;;;;;;;;;;;;;;16.83;43.20;100820.75;10325957;28;1012;-82
2024/01/08 04:32:38;;;;;;;;;;;;;;;16.86;43.39;100826.78;10326098;28;1894;-82
2024/01/08 04:37:34;;;;;;;;;;;;;;;16.89;43.24;100825.00;10325599;28;1432;-81
2024/01/08 04:42:30;;;;;;;;;;;;;;;16.93;43.30;100827.53;10326642;28;822;-81
2024/01/08 04:47:26;;;;;;;;;;;;;;;16.98;42.95;100830.06;10326525;28;817;-82
2024/01/08 04:52:21;;;;;;;;;;;;;;;16.94;43.33;100818.72;10325659;28;1975;-81
2024/01/08 04:57:17;;;;;;;;;;;;;;;16.98;43.26;100822.19;10325675;28;867;-81
2024/01/08 05:02:13;;;;;;;;;;;;;;;16.99;43.26;100814.22;10326017;28;931;-82
2024/01/08 05:07:12;;;;;;;;;;;;;;;16.98;43.09;100824.81;10325687;28;822;-81
2024/01/08 05:12:08;;;;;;;;;;;;;;;17.02;43.14;100814.16;10325166;28;1960;-81
2024/01/08 05:17:04;;;;;;;;;;;;;;;17.06;43.01;100817.59;10326020;28;810;-81
2024/01/08 05:21:59;;;;;;;;;;;;;;;17.06;43.13;100825.50;10325104;28;798;-81
2024/01/08 05:26:55;;;;;;;;;;;;;;;17.14;43.07;100817.41;10325788;28;790;-81
2024/01/08 05:31:51;;;;;;;;;;;;;;;17.07;43.08;100817.53;10325183;28;761;-81
2024/01/08 05:36:47;;;;;;;;;;;;;;;17.10;42.90;100816.59;10325145;28;1910;-81
2024/01/08 05:41:43;;;;;;;;;;;;;;;17.14;42.95;100820.91;10325342;28;854;-81
2024/01/08 05:46:39;;;;;;;;;;;;;;;17.08;43.20;100815.75;10324681;28;862;-82
2024/01/08 05:51:35;;;;;;;;;;;;;;;17.15;43.08;100822.63;10324542;28;982;-81
2024/01/08 05:56:31;;;;;;;;;;;;;;;17.16;43.07;100820.84;10325185;28;1910;-82
2024/01/08 06:01:27;;;;;;;;;;;;;;;17.19;43.01;100816.41;10324378;28;779;-81
2024/01/08 06:06:23;;;;;;;;;;;;;;;17.19;43.00;100813.75;10324141;28;1306;-82
2024/01/08 06:11:19;;;;;;;;;;;;;;;17.26;42.35;100827.63;10324207;28;862;-77
2024/01/08 06:16:15;;;;;;;;;;;;;;;17.26;42.39;100830.28;10324019;28;1901;-82
2024/01/08 06:21:11;;;;;;;;;;;;;;;17.26;42.66;100835.53;10323915;28;846;-81
2024/01/08 06:26:07;;;;;;;;;;;;;;;17.30;42.67;100831.94;10330395;28;952;-82
2024/01/08 06:31:04;;;;;;;;;;;;;;;17.30;42.35;100832.81;10330990;28;920;-83
2024/01/08 06:36:00;;;;;;;;;;;;;;;17.31;42.42;100828.41;10330417;28;1898;-81
2024/01/08 06:40:56;;;;;;;;;;;;;;;17.27;42.64;100840.78;10331210;28;913;-82
2024/01/08 06:45:52;;;;;;;;;;;;;;;17.28;42.86;100842.50;10329997;28;975;-82
2024/01/08 06:50:48;;;;;;;;;;;;;;;17.21;42.78;100842.69;10330921;28;774;-80
2024/01/08 06:55:44;;;;;;;;;;;;;;;17.08;43.24;100843.00;10330582;28;1967;-80
2024/01/08 07:00:39;;;;;;;;;;;;;;;17.15;42.86;100843.72;10329884;28;833;-81
2024/01/08 07:05:36;;;;;;;;;;;;;;;17.19;42.82;100842.75;10329859;28;860;-82
2024/01/08 07:10:33;;;;;;;;;;;;;;;17.20;42.30;100839.19;10330021;28;885;-81
2024/01/08 07:15:29;;;;;;;;;;;;;;;17.16;42.52;100850.72;10329318;28;1894;-84
2024/01/08 07:20:25;;;;;;;;;;;;;;;17.03;42.93;100842.25;10329725;28;818;-82
2024/01/08 07:25:21;;;;;;;;;;;;;;;17.01;42.72;100848.44;10329136;28;869;-83
2024/01/08 07:30:17;;;;;;;;;;;;;;;16.92;43.50;100851.25;10328682;28;851;-83
2024/01/08 07:35:13;;;;;;;;;;;;;;;16.84;43.12;100849.66;10327598;28;1897;-82
2024/01/08 07:40:09;;;;;;;;;;;;;;;16.86;43.30;100858.41;10327599;28;858;-81
2024/01/08 07:45:05;;;;;;;;;;;;;;;16.83;43.28;100866.38;10328096;28;759;-81
2024/01/08 07:50:01;;;;;;;;;;;;;;;16.77;43.49;100871.78;10327861;28;939;-81
2024/01/08 07:54:57;;;;;;;;;;;;;;;16.89;43.13;100875.03;10328162;28;1910;-83
2024/01/08 07:59:53;;;;;;;;;;;;;;;17.02;42.10;100879.13;10328028;28;884;-81
2024/01/08 08:04:48;;;;;;;;;;;;;;;17.07;42.18;100885.16;10326569;28;940;-79
2024/01/08 08:09:44;;;;;;;;;;;;;;;17.07;42.44;100877.25;10327093;28;922;-83
2024/01/08 08:14:40;;;;;;;;;;;;;;;16.96;42.73;100881.91;10326833;28;1893;-82
2024/01/08 08:19:37;;;;;;;;;;;;;;;16.96;42.77;100876.66;10326695;28;875;-83
2024/01/08 08:24:33;;;;;;;;;;;;;;;16.94;42.96;100889.84;10327053;28;901;-83
2024/01/08 08:29:29;;;;;;;;;;;;;;;17.03;42.33;100889.66;10326966;28;947;-82
2024/01/08 08:34:26;;;;;;;;;;;;;;;17.12;41.87;100901.75;10326185;28;1898;-82
2024/01/08 08:39:22;;;;;;;;;;;;;;;17.14;41.99;100899.94;10326817;28;1148;-83
2024/01/08 08:44:18;;;;;;;;;;;;;;;17.16;41.75;100900.78;10326573;28;810;-82
2024/01/08 08:49:14;;;;;;;;;;;;;;;17.17;41.69;100915.69;10324943;28;789;-82
2024/01/08 08:54:09;;;;;;;;;;;;;;;17.20;41.68;100922.66;10326256;28;1914;-82
2024/01/08 08:59:05;;;;;;;;;;;;;;;17.21;41.34;100922.63;10326278;28;836;-82
2024/01/08 09:04:01;;;;;;;;;;;;;;;17.22;41.73;100934.88;10326120;28;898;-83
2024/01/08 09:08:57;;;;;;;;;;;;;;;17.25;41.44;100934.81;10325813;28;766;-83
2024/01/08 09:13:53;;;;;;;;;;;;;;;17.26;41.55;100946.22;10325999;28;1969;-83
2024/01/08 09:18:49;;;;;;;;;;;;;;;17.25;41.39;100948.00;10324640;28;884;-83
2024/01/08 09:23:45;;;;;;;;;;;;;;;17.27;41.43;100948.84;10325747;28;869;-83
2024/01/08 09:28:41;;;;;;;;;;;;;;;17.25;41.64;100955.91;10325043;28;850;-83
2024/01/08 09:33:37;;;;;;;;;;;;;;;17.30;41.46;100975.13;10324870;28;1961;-83
2024/01/08 09:38:33;;;;;;;;;;;;;;;17.30;41.53;100975.13;10324202;28;1187;-83
2024/01/08 09:43:29;;;;;;;;;;;;;;;17.28;41.51;100983.94;10324744;28;849;-83
2024/01/08 09:48:24;;;;;;;;;;;;;;;17.31;41.56;100994.41;10324608;28;794;-82
2024/01/08 09:53:21;;;;;;;;;;;;;;;17.29;41.47;100989.19;10324491;28;1922;-85
2024/01/08 09:58:16;;;;;;;;;;;;;;;17.31;41.41;100994.41;10327022;28;849;-84
2024/01/08 10:03:13;;;;;;;;;;;;;;;17.36;41.32;100994.31;10332657;28;917;-82
2024/01/08 10:08:09;;;;;;;;;;;;;;;17.34;41.24;100990.84;10331811;28;810;-82
2024/01/08 10:13:05;;;;;;;;;;;;;;;17.39;41.09;100986.34;10332123;28;1894;-83
2024/01/08 10:18:02;;;;;;;;;;;;;;;17.41;40.68;100988.06;10331571;28;997;-80
2024/01/08 10:22:58;;;;;;;;;;;;;;;17.41;40.52;100987.19;10331930;28;1629;-73
2024/01/08 10:27:53;;;;;;;;;;;;;;;17.47;40.68;100987.91;10332163;28;1142;-82
2024/01/08 10:32:49;;;;;;;;;;;;;;;17.43;40.97;100994.16;10330957;28;1947;-81
2024/01/08 10:37:45;;;;;;;;;;;;;;;17.46;40.98;100985.31;10331005;28;1326;-83
2024/01/08 10:42:42;;;;;;;;;;;;;;;17.44;40.83;100980.06;10331251;28;857;-83
2024/01/08 10:47:38;;;;;;;;;;;;;;;17.45;40.98;100983.59;10330418;28;1003;-82
2024/01/08 10:52:35;;;;;;;;;;;;;;;17.47;40.68;100989.69;10329628;28;1976;-82
2024/01/08 10:57:31;;;;;;;;;;;;;;;17.49;40.69;100979.97;10330083;28;844;-83
2024/01/08 11:02:27;;;;;;;;;;;;;;;17.51;40.54;100983.44;10329894;28;789;-82
2024/01/08 11:07:23;;;;;;;;;;;;;;;17.51;40.52;100989.59;10329720;28;818;-82
2024/01/08 11:12:19;;;;;;;;;;;;;;;17.51;40.51;100994.84;10328521;28;873;-83
2024/01/08 11:17:15;;;;;;;;;;;;;;;17.53;40.43;100992.19;10329333;28;978;-82
2024/01/08 11:22:11;;;;;;;;;;;;;;;17.54;40.41;100991.28;10329102;28;959;-83
2024/01/08 11:27:07;;;;;;;;;;;;;;;17.51;40.37;100994.84;10328825;28;977;-82
2024/01/08 11:32:03;;;;;;;;;;;;;;;17.56;40.18;100989.50;10329325;28;826;-82
2024/01/08 11:36:59;;;;;;;;;;;;;;;17.60;40.26;100988.50;10328982;28;1898;-82
2024/01/08 11:41:55;;;;;;;;;;;;;;;17.52;40.76;100985.19;10328896;28;806;-83
2024/01/08 11:46:52;;;;;;;;;;;;;;;17.59;40.72;100985.91;10329058;28;798;-83
2024/01/08 11:51:47;;;;;;;;;;;;;;;17.61;40.55;100979.72;10328456;28;851;-83
2024/01/08 11:56:43;;;;;;;;;;;;;;;17.63;40.24;100970.00;10327699;28;1914;-82
2024/01/08 12:01:39;;;;;;;;;;;;;;;17.67;40.22;100976.06;10328054;28;778;-83
2024/01/08 12:06:35;;;;;;;;;;;;;;;17.63;40.73;100977.91;10327236;28;833;-82
2024/01/08 12:11:31;;;;;;;;;;;;;;;17.68;40.19;100983.06;10327949;28;873;-83
2024/01/08 12:16:27;;;;;;;;;;;;;;;17.74;39.98;100986.44;10327458;28;1953;-85
2024/01/08 12:21:23;;;;;;;;;;;;;;;17.73;40.08;100989.09;10327289;28;794;-82
2024/01/08 12:26:19;;;;;;;;;;;;;;;17.81;40.11;100991.59;10327215;28;842;-80
2024/01/08 12:31:17;;;;;;;;;;;;;;;17.85;40.01;100988.84;10326993;28;783;-80
2024/01/08 12:36:13;;;;;;;;;;;;;;;17.89;40.19;100994.91;10325799;28;1965;-81
2024/01/08 12:41:09;;;;;;;;;;;;;;;17.94;40.06;100987.75;10326741;28;821;-80
2024/01/08 12:46:05;;;;;;;;;;;;;;;17.97;39.93;100982.38;10325987;28;763;-81
2024/01/08 12:51:01;;;;;;;;;;;;;;;17.99;40.10;100991.16;10325370;28;814;-81
2024/01/08 12:55:58;;;;;;;;;;;;;;;18.08;39.81;100984.81;10325086;28;1918;-81
2024/01/08 13:00:55;;;;;;;;;;;;;;;18.11;39.97;100990.00;10325608;28;798;-81
2024/01/08 13:05:51;;;;;;;;;;;;;;;18.16;39.98;100991.59;10325454;28;909;-82
2024/01/08 13:10:47;;;;;;;;;;;;;;;18.15;39.96;100989.84;10325365;28;849;-81
2024/01/08 13:15:43;;;;;;;;;;;;;;;18.18;40.04;100992.44;10325981;28;1885;-81
2024/01/08 13:20:39;;;;;;;;;;;;;;;18.28;39.86;100994.84;10325831;28;888;-81
2024/01/08 13:25:35;;;;;;;;;;;;;;;18.34;39.78;100997.34;10325751;28;846;-81
2024/01/08 13:30:31;;;;;;;;;;;;;;;18.38;40.04;100985.78;10326532;28;889;-81
2024/01/08 13:35:27;;;;;;;;;;;;;;;18.42;39.70;100992.72;10330641;28;1894;-81
2024/01/08 13:40:27;;;;;;;;;;;;;;;18.40;39.78;100991.88;10333116;28;751;-81
2024/01/08 13:45:23;;;;;;;;;;;;;;;18.48;39.57;100989.03;10333351;28;885;-81
2024/01/08 13:50:19;;;;;;;;;;;;;;;18.49;39.50;101007.47;10332561;28;862;-81
2024/01/08 13:55:15;;;;;;;;;;;;;;;18.15;40.09;101012.75;10332980;28;1914;-85
2024/01/08 14:00:11;;;;;;;;;;;;;;;18.01;39.80;101015.72;10332262;28;894;-80
2024/01/08 14:05:07;;;;;;;;;;;;;;;17.91;39.39;101016.84;10331933;28;885;-81
2024/01/08 14:10:03;;;;;;;;;;;;;;;17.85;39.05;101011.72;10331614;28;977;-81
2024/01/08 14:14:59;;;;;;;;;;;;;;;17.91;38.61;101016.84;10331492;28;1894;-82
2024/01/08 14:19:59;;;;;;;;;;;;;;;18.02;38.41;101006.88;10331894;28;854;-82
2024/01/08 14:24:54;;;;;;;;;;;;;;;18.05;38.19;101014.75;10331228;28;814;-83
2024/01/08 14:29:50;;;;;;;;;;;;;;;18.02;38.43;101006.03;10331635;28;869;-82
2024/01/08 14:34:46;;;;;;;;;;;;;;;18.00;38.76;101011.38;10330711;28;1957;-82
2024/01/08 14:39:42;;;;;;;;;;;;;;;17.88;39.12;101022.19;10330521;28;1334;-81
2024/01/08 14:44:38;;;;;;;;;;;;;;;17.77;39.38;101026.81;10330490;28;771;-82
2024/01/08 14:49:34;;;;;;;;;;;;;;;17.64;39.82;101027.09;10330208;28;806;-82
2024/01/08 14:54:30;;;;;;;;;;;;;;;17.58;39.79;101035.16;10330363;28;1917;-81
2024/01/08 14:59:26;;;;;;;;;;;;;;;17.52;40.32;101032.63;10329858;28;916;-81
2024/01/08 15:04:22;;;;;;;;;;;;;;;17.52;40.33;101040.53;10329706;28;977;-82
2024/01/08 15:09:18;;;;;;;;;;;;;;;17.49;40.35;101043.25;10328957;28;936;-86
2024/01/08 15:14:14;;;;;;;;;;;;;;;17.51;40.13;101052.00;10330239;28;1893;-86
2024/01/08 15:19:10;;;;;;;;;;;;;;;17.59;40.15;101051.84;10329199;28;874;-82
2024/01/08 15:24:06;;;;;;;;;;;;;;;17.58;40.07;101053.59;10329757;28;1675;-74
2024/01/08 15:29:02;;;;;;;;;;;;;;;17.61;40.14;101063.22;10329268;28;988;-82
2024/01/08 15:33:58;;;;;;;;;;;;;;;17.65;39.99;101063.09;10328460;28;1879;-83
2024/01/08 15:38:54;;;;;;;;;;;;;;;17.66;39.97;101067.47;10329157;28;1156;-82
2024/01/08 15:43:50;;;;;;;;;;;;;;;17.62;40.29;101071.06;10328099;28;822;-85
2024/01/08 15:48:46;;;;;;;;;;;;;;;17.68;40.18;101080.63;10328717;28;830;-83
2024/01/08 15:53:42;;;;;;;;;;;;;;;17.68;40.18;101077.97;10327758;28;1902;-82
2024/01/08 15:58:38;;;;;;;;;;;;;;;17.68;40.23;101086.78;10326998;28;878;-87
2024/01/08 16:03:34;;;;;;;;;;;;;;;17.72;40.29;101093.72;10327399;28;758;-88
2024/01/08 16:08:30;;;;;;;;;;;;;;;17.67;40.27;101092.06;10327865;28;806;-84
2024/01/08 16:13:25;;;;;;;;;;;;;;;17.70;40.28;101108.69;10326467;28;1870;-85
2024/01/08 16:18:21;;;;;;;;;;;;;;;17.72;40.34;101116.59;10326730;28;783;-83
2024/01/08 16:23:17;;;;;;;;;;;;;;;17.69;40.19;101114.00;10327336;28;774;-83
2024/01/08 16:28:14;;;;;;;;;;;;;;;17.68;40.33;101118.44;10326468;28;759;-84
2024/01/08 16:33:09;;;;;;;;;;;;;;;17.69;40.33;101124.56;10326111;28;1947;-85
2024/01/08 16:38:05;;;;;;;;;;;;;;;17.70;40.32;101124.50;10325239;28;1507;-84
2024/01/08 16:43:01;;;;;;;;;;;;;;;17.71;40.24;101135.94;10325928;28;933;-80
2024/01/08 16:47:57;;;;;;;;;;;;;;;17.72;40.41;101137.69;10325753;28;795;-77
2024/01/08 16:52:53;;;;;;;;;;;;;;;17.73;40.50;101147.31;10326180;28;1902;-83
2024/01/08 16:57:49;;;;;;;;;;;;;;;17.77;40.31;101143.72;10326279;28;750;-83
2024/01/08 17:02:45;;;;;;;;;;;;;;;17.78;40.33;101147.22;10325496;28;811;-83
2024/01/08 17:07:41;;;;;;;;;;;;;;;17.77;40.36;101145.50;10325207;28;769;-83
2024/01/08 17:12:37;;;;;;;;;;;;;;;17.77;40.49;101158.69;10325781;28;1949;-83
2024/01/08 17:17:33;;;;;;;;;;;;;;;17.77;40.53;101151.63;10325212;28;810;-83
2024/01/08 17:22:29;;;;;;;;;;;;;;;17.82;40.24;101151.59;10325006;28;964;-83
2024/01/08 17:27:25;;;;;;;;;;;;;;;17.84;40.30;101162.94;10325506;28;861;-83
2024/01/08 17:32:21;;;;;;;;;;;;;;;17.84;40.36;101173.50;10324931;28;964;-84
2024/01/08 17:37:17;;;;;;;;;;;;;;;17.85;40.23;101169.97;10324327;28;1902;-81
2024/01/08 17:42:13;;;;;;;;;;;;;;;17.84;40.45;101173.50;10325226;28;941;-81
2024/01/08 17:47:09;;;;;;;;;;;;;;;17.87;40.27;101174.31;10323959;28;969;-82
2024/01/08 17:52:05;;;;;;;;;;;;;;;17.86;40.24;101169.94;10325108;28;774;-81
2024/01/08 17:57:02;;;;;;;;;;;;;;;17.84;40.30;101187.59;10324370;28;1918;-81
2024/01/08 18:01:58;;;;;;;;;;;;;;;17.88;40.55;101183.97;10323766;28;1159;-81
2024/01/08 18:06:56;;;;;;;;;;;;;;;17.91;40.42;101188.31;10324152;28;867;-78
2024/01/08 18:11:52;;;;;;;;;;;;;;;17.92;40.43;101190.91;10324122;28;813;-77
2024/01/08 18:16:50;;;;;;;;;;;;;;;17.96;40.43;101197.00;10324430;28;1964;-74
2024/01/08 18:21:46;;;;;;;;;;;;;;;17.97;40.55;101198.72;10330202;28;897;-75
2024/01/08 18:26:42;;;;;;;;;;;;;;;17.98;40.72;101195.19;10331800;28;786;-79
2024/01/08 18:31:38;;;;;;;;;;;;;;;17.97;40.76;101198.72;10330338;28;1035;-79
2024/01/08 18:36:33;;;;;;;;;;;;;;;17.93;40.58;101200.56;10330359;28;1973;-84
2024/01/08 18:41:29;;;;;;;;;;;;;;;17.98;40.45;101202.25;10330532;28;889;-75
2024/01/08 18:46:25;;;;;;;;;;;;;;;18.01;40.71;101205.69;10330443;28;939;-75
2024/01/08 18:51:21;;;;;;;;;;;;;;;17.97;40.83;101204.00;10331262;28;818;-78
2024/01/08 18:56:17;;;;;;;;;;;;;;;17.95;40.70;101206.69;10330770;28;1914;-80
2024/01/08 19:01:13;;;;;;;;;;;;;;;17.94;40.56;101206.69;10330693;28;849;-79
2024/01/08 19:06:09;;;;;;;;;;;;;;;17.94;40.45;101215.47;10329893;28;871;-79
2024/01/08 19:11:04;;;;;;;;;;;;;;;17.95;40.70;101213.72;10330380;28;837;-79
2024/01/08 19:16:00;;;;;;;;;;;;;;;17.95;40.69;101208.47;10329520;28;1898;-79
2024/01/08 19:20:57;;;;;;;;;;;;;;;17.96;40.52;101213.69;10329879;28;790;-79
2024/01/08 19:25:53;;;;;;;;;;;;;;;17.95;40.32;101211.09;10329073;28;794;-80
2024/01/08 19:30:49;;;;;;;;;;;;;;;17.94;40.52;101225.16;10329044;28;874;-80
2024/01/08 19:35:45;;;;;;;;;;;;;;;17.96;40.44;101218.09;10328582;28;1945;-80
2024/01/08 19:40:41;;;;;;;;;;;;;;;17.93;40.53;101223.44;10329343;28;786;-79
2024/01/08 19:45:37;;;;;;;;;;;;;;;17.95;40.43;101221.66;10328328;28;761;-79
2024/01/08 19:50:32;;;;;;;;;;;;;;;17.95;40.52;101219.88;10328639;28;862;-80
2024/01/08 19:55:28;;;;;;;;;;;;;;;17.93;40.60;101213.75;10327866;28;1977;-80
2024/01/08 20:00:24;;;;;;;;;;;;;;;17.96;40.56;101207.53;10327828;28;818;-79
2024/01/08 20:05:20;;;;;;;;;;;;;;;17.94;40.65;101211.97;10327464;28;848;-79
2024/01/08 20:10:16;;;;;;;;;;;;;;;17.96;40.48;101212.81;10327930;28;847;-79
2024/01/08 20:15:12;;;;;;;;;;;;;;;17.94;40.53;101212.84;10327743;28;1909;-79
2024/01/08 20:20:08;;;;;;;;;;;;;;;17.92;40.39;101219.03;10327662;28;862;-79
2024/01/08 20:25:04;;;;;;;;;;;;;;;17.92;40.42;101219.03;10327327;28;838;-79
2024/01/08 20:30:00;;;;;;;;;;;;;;;17.88;40.70;101227.94;10326538;28;857;-79
2024/01/08 20:34:56;;;;;;;;;;;;;;;17.84;40.43;101226.25;10326987;28;1902;-79
2024/01/08 20:39:52;;;;;;;;;;;;;;;17.83;40.78;101241.22;10326813;28;1124;-79
2024/01/08 20:44:48;;;;;;;;;;;;;;;17.77;40.83;101232.53;10325962;28;785;-79
2024/01/08 20:49:44;;;;;;;;;;;;;;;17.75;40.74;101235.19;10325985;28;937;-80
2024/01/08 20:54:40;;;;;;;;;;;;;;;17.72;40.92;101232.63;10325694;28;1965;-79
2024/01/08 20:59:38;;;;;;;;;;;;;;;17.66;41.08;101233.59;10326322;28;848;-80
2024/01/08 21:04:34;;;;;;;;;;;;;;;17.65;41.24;101233.63;10325507;28;865;-79
2024/01/08 21:09:30;;;;;;;;;;;;;;;17.61;40.89;101227.56;10326700;28;892;-80
2024/01/08 21:14:26;;;;;;;;;;;;;;;17.59;41.20;101242.53;10325236;28;1901;-79
2024/01/08 21:19:21;;;;;;;;;;;;;;;17.55;41.05;101226.78;10326055;28;757;-80
2024/01/08 21:24:18;;;;;;;;;;;;;;;17.55;41.29;101232.91;10324643;28;838;-79
2024/01/08 21:29:14;;;;;;;;;;;;;;;17.51;41.30;101239.16;10325874;28;865;-79
2024/01/08 21:34:10;;;;;;;;;;;;;;;17.48;41.28;101240.09;10324735;28;1902;-79
2024/01/08 21:39:06;;;;;;;;;;;;;;;17.48;41.39;101233.94;10324903;28;1105;-79
2024/01/08 21:44:02;;;;;;;;;;;;;;;17.42;41.53;101247.22;10324857;28;802;-80
2024/01/08 21:49:01;;;;;;;;;;;;;;;17.37;41.56;101249.97;10325145;28;1119;-79
2024/01/08 21:53:57;;;;;;;;;;;;;;;17.34;41.49;101247.34;10327003;28;1988;-79
2024/01/08 21:58:53;;;;;;;;;;;;;;;17.30;41.47;101254.47;10332370;28;1133;-78
2024/01/08 22:03:49;;;;;;;;;;;;;;;17.25;41.51;101263.34;10332364;28;887;-80
2024/01/08 22:08:45;;;;;;;;;;;;;;;17.23;41.53;101268.63;10332879;28;868;-79
2024/01/08 22:13:41;;;;;;;;;;;;;;;17.23;41.52;101259.84;10332370;28;1957;-79
2024/01/08 22:18:39;;;;;;;;;;;;;;;17.18;41.65;101265.19;10332002;28;765;-79
2024/01/08 22:23:35;;;;;;;;;;;;;;;17.16;41.61;101266.13;10331431;28;941;-79
2024/01/08 22:28:30;;;;;;;;;;;;;;;17.18;41.64;101266.97;10331517;28;898;-80
2024/01/08 22:33:26;;;;;;;;;;;;;;;17.13;41.71;101274.94;10330972;28;1894;-79
2024/01/08 22:38:22;;;;;;;;;;;;;;;17.12;41.51;101273.22;10332069;28;1325;-79
2024/01/08 22:43:18;;;;;;;;;;;;;;;17.13;41.41;101280.19;10331519;28;917;-79
2024/01/08 22:48:14;;;;;;;;;;;;;;;17.10;41.46;101280.25;10330598;28;965;-80
2024/01/08 22:53:10;;;;;;;;;;;;;;;17.08;41.57;101275.03;10330371;28;1979;-79
2024/01/08 22:58:06;;;;;;;;;;;;;;;17.12;41.34;101278.47;10330230;28;802;-79
2024/01/08 23:03:02;;;;;;;;;;;;;;;17.09;41.48;101275.91;10330242;28;905;-80
2024/01/08 23:07:57;;;;;;;;;;;;;;;17.12;41.30;101277.63;10328491;28;869;-80
2024/01/08 23:12:53;;;;;;;;;;;;;;;17.12;41.57;101285.53;10329005;28;1960;-79
2024/01/08 23:17:49;;;;;;;;;;;;;;;17.07;41.47;101275.03;10330309;28;826;-79
2024/01/08 23:22:45;;;;;;;;;;;;;;;17.11;41.20;101283.75;10329285;28;886;-79
2024/01/08 23:27:41;;;;;;;;;;;;;;;17.07;41.49;101275.03;10329716;28;889;-79
2024/01/08 23:32:37;;;;;;;;;;;;;;;17.04;41.68;101273.34;10328925;28;966;-79
2024/01/08 23:37:33;;;;;;;;;;;;;;;17.08;41.44;101274.13;10329091;28;1890;-79
2024/01/08 23:42:29;;;;;;;;;;;;;;;17.04;41.47;101277.72;10329087;28;991;-79
2024/01/08 23:47:25;;;;;;;;;;;;;;;17.00;41.53;101282.19;10327753;28;920;-79
2024/01/08 23:52:21;;;;;;;;;;;;;;;17.01;41.51;101283.91;10328105;28;808;-79
2024/01/08 23:57:17;;;;;;;;;;;;;;;16.98;41.58;101291.88;10328385;28;1973;-79
